Time;durP1;ratioP1;P1;durP2;ratioP2;P2;SDS_P1;SDS_P2;PMS_P1;PMS_P2;Temp;Humidity;BMP_temperature;BMP_pressure;BME280_temperature;BME280_humidity;BME280_pressure;Samples;Min_cycle;Max_cycle;Signal;HPM_P1;HPM_P2
2023/06/30 00:00:12;;;;;;;19.58;9.73;;;24.30;99.90;;;;;;4826396;29;20050;-79
2023/06/30 00:02:41;;;;;;;20.52;9.32;;;24.20;99.90;;;;;;4825955;29;20051;-78
2023/06/30 00:05:09;;;;;;;17.58;9.70;;;24.20;99.90;;;;;;4830458;29;20136;-78
2023/06/30 00:07:37;;;;;;;19.98;9.05;;;24.10;99.90;;;;;;4826972;29;20049;-78
2023/06/30 00:10:05;;;;;;;16.40;9.65;;;24.10;99.90;;;;;;4831901;29;20050;-77
2023/06/30 00:12:33;;;;;;;19.98;9.10;;;24.00;99.90;;;;;;4826870;29;20054;-78
2023/06/30 00:15:00;;;;;;;15.40;9.57;;;23.90;99.90;;;;;;4826143;29;20057;-78
2023/06/30 00:17:27;;;;;;;16.42;9.60;;;23.80;99.90;;;;;;4825667;29;20065;-78
2023/06/30 00:19:57;;;;;;;15.43;9.23;;;23.70;99.90;;;;;;4830709;29;20057;-78
2023/06/30 00:22:24;;;;;;;21.23;9.98;;;23.60;99.90;;;;;;4828795;29;20126;-78
2023/06/30 00:24:55;;;;;;;16.05;9.40;;;23.50;99.90;;;;;;4825977;29;20066;-78
2023/06/30 00:27:22;;;;;;;14.95;9.63;;;23.40;99.90;;;;;;4834171;29;20129;-77
2023/06/30 00:29:49;;;;;;;20.02;10.05;;;23.30;99.90;;;;;;4832136;29;20054;-79
2023/06/30 00:32:16;;;;;;;15.95;10.10;;;23.20;99.90;;;;;;4824783;29;20054;-78
2023/06/30 00:34:43;;;;;;;16.55;10.23;;;23.10;99.90;;;;;;4836010;29;20053;-77
2023/06/30 00:37:09;;;;;;;15.13;9.73;;;23.10;99.90;;;;;;4839488;29;20063;-77
2023/06/30 00:39:36;;;;;;;17.15;10.48;;;23.00;99.90;;;;;;4833130;29;20055;-77
2023/06/30 00:42:03;;;;;;;15.60;8.73;;;23.00;99.90;;;;;;4825702;29;20141;-78
2023/06/30 00:44:30;;;;;;;17.88;9.52;;;22.90;99.90;;;;;;4825476;29;20422;-78
2023/06/30 00:47:00;;;;;;;15.88;9.27;;;22.90;99.90;;;;;;4824542;29;20546;-77
2023/06/30 00:49:28;;;;;;;;;;;22.90;99.90;;;;;;4832881;29;20050;-77
2023/06/30 00:51:55;;;;;;;13.80;9.45;;;22.90;99.90;;;;;;4828909;29;20039;-79
2023/06/30 00:54:23;;;;;;;16.50;9.93;;;22.90;99.90;;;;;;4824965;29;20474;-79
2023/06/30 00:56:50;;;;;;;14.55;8.95;;;22.90;99.90;;;;;;4824476;29;20520;-78
2023/06/30 00:59:17;;;;;;;19.75;9.85;;;22.80;99.90;;;;;;4826581;29;20074;-77
2023/06/30 01:02:12;;;;;;;18.60;10.65;;;22.80;99.90;;;;;;4828216;29;20094;-78
2023/06/30 01:04:47;;;;;;;16.05;9.77;;;22.80;99.90;;;;;;4839332;29;20504;-78
2023/06/30 01:07:18;;;;;;;16.48;10.00;;;22.70;99.90;;;;;;4830011;29;20540;-78
2023/06/30 01:10:13;;;;;;;20.30;9.38;;;22.80;99.90;;;;;;4827693;29;20085;-78
2023/06/30 01:12:42;;;;;;;10.80;8.50;;;22.70;99.90;;;;;;4824398;29;20532;-79
2023/06/30 01:15:09;;;;;;;14.32;9.18;;;22.70;99.90;;;;;;4831032;29;20061;-78
2023/06/30 01:17:45;;;;;;;15.55;9.75;;;22.70;99.90;;;;;;4826012;29;20046;-78
2023/06/30 01:20:17;;;;;;;17.23;9.55;;;22.70;99.90;;;;;;4825952;29;20145;-78
2023/06/30 01:22:50;;;;;;;14.40;9.57;;;22.70;99.90;;;;;;4829324;29;20094;-79
2023/06/30 01:25:20;;;;;;;19.70;10.25;;;22.60;99.90;;;;;;4827481;29;20420;-78
2023/06/30 01:27:49;;;;;;;16.70;10.43;;;22.60;99.90;;;;;;4827359;29;20050;-79
2023/06/30 01:30:17;;;;;;;17.33;9.43;;;22.60;99.90;;;;;;4830564;29;20051;-78
2023/06/30 01:32:45;;;;;;;13.70;10.13;;;22.60;99.90;;;;;;4827371;29;20481;-78
2023/06/30 01:35:12;;;;;;;11.98;9.15;;;22.70;99.90;;;;;;4836415;29;20050;-78
2023/06/30 01:37:39;;;;;;;14.57;9.10;;;22.60;99.90;;;;;;4829484;29;20054;-78
2023/06/30 01:40:06;;;;;;;12.82;9.07;;;22.60;99.90;;;;;;4826917;29;20050;-78
2023/06/30 01:42:35;;;;;;;15.15;9.13;;;22.60;99.90;;;;;;4826969;29;20050;-78
2023/06/30 01:45:03;;;;;;;15.40;9.50;;;22.60;99.90;;;;;;4830138;29;20072;-78
2023/06/30 01:47:31;;;;;;;10.80;7.53;;;22.60;99.90;;;;;;4827119;29;20089;-78
2023/06/30 01:49:58;;;;;;;11.48;8.18;;;22.50;99.90;;;;;;4836967;29;20054;-78
2023/06/30 01:52:25;;;;;;;13.20;8.45;;;22.60;99.90;;;;;;4811711;29;20079;-78
2023/06/30 01:54:51;;;;;;;13.27;9.27;;;22.50;99.90;;;;;;4828232;29;20054;-78
2023/06/30 01:57:18;;;;;;;14.32;9.05;;;22.50;99.90;;;;;;4827484;29;20050;-78
2023/06/30 01:59:45;;;;;;;16.63;9.18;;;22.50;99.90;;;;;;4830638;29;20054;-78
2023/06/30 02:02:12;;;;;;;11.90;8.18;;;22.50;99.90;;;;;;4827294;29;20047;-78
2023/06/30 02:04:38;;;;;;;13.93;8.57;;;22.40;99.90;;;;;;4832748;29;20501;-78
2023/06/30 02:07:05;;;;;;;15.77;8.88;;;22.40;99.90;;;;;;4826334;29;20055;-77
2023/06/30 02:09:32;;;;;;;13.35;8.77;;;22.40;99.90;;;;;;4826925;29;20054;-78
2023/06/30 02:12:13;;;;;;;14.63;9.57;;;22.40;99.90;;;;;;4826068;29;20608;-77
2023/06/30 02:14:39;;;;;;;13.82;8.93;;;22.40;99.90;;;;;;4830305;29;20054;-77
2023/06/30 02:17:08;;;;;;;12.40;8.77;;;22.40;99.90;;;;;;4826910;29;20111;-77
2023/06/30 02:19:35;;;;;;;12.60;8.77;;;22.30;99.90;;;;;;4837795;29;20089;-78
2023/06/30 02:22:02;;;;;;;13.90;9.68;;;22.30;99.90;;;;;;4828044;29;20089;-77
2023/06/30 02:24:29;;;;;;;14.18;9.90;;;22.40;99.90;;;;;;4825902;29;20467;-78
2023/06/30 02:26:55;;;;;;;13.10;8.98;;;22.40;99.90;;;;;;4826482;29;20047;-77
2023/06/30 02:29:22;;;;;;;13.73;9.13;;;22.40;99.90;;;;;;4833215;29;20046;-77
2023/06/30 02:31:49;;;;;;;12.50;8.73;;;22.40;99.90;;;;;;4826856;29;20050;-77
2023/06/30 02:34:16;;;;;;;11.25;9.40;;;22.40;99.90;;;;;;4826048;29;20061;-78
2023/06/30 02:36:43;;;;;;;13.57;9.25;;;22.40;99.90;;;;;;4825584;29;20066;-77
2023/06/30 02:39:09;;;;;;;11.73;8.70;;;22.40;99.90;;;;;;4826391;29;20097;-78
2023/06/30 02:41:36;;;;;;;12.45;8.70;;;22.40;99.90;;;;;;4825531;29;20055;-78
2023/06/30 02:44:03;;;;;;;13.52;9.40;;;22.50;99.90;;;;;;4829736;29;20078;-77
2023/06/30 02:46:30;;;;;;;12.15;8.68;;;22.40;99.90;;;;;;4827782;29;20088;-77
2023/06/30 02:48:56;;;;;;;15.45;9.50;;;22.50;99.90;;;;;;4824871;29;20055;-79
2023/06/30 02:51:23;;;;;;;11.35;8.40;;;22.50;99.90;;;;;;4828435;29;20561;-78
2023/06/30 02:53:50;;;;;;;11.90;8.90;;;22.50;99.90;;;;;;4826479;29;20065;-78
2023/06/30 02:56:17;;;;;;;11.75;8.30;;;22.50;99.90;;;;;;4825532;29;20054;-78
2023/06/30 02:58:44;;;;;;;11.18;8.73;;;22.40;99.90;;;;;;4832833;29;20117;-78
2023/06/30 03:01:11;;;;;;;11.05;8.65;;;22.40;99.90;;;;;;4830790;29;20459;-78
2023/06/30 03:03:38;;;;;;;12.05;8.95;;;22.40;99.90;;;;;;4832538;29;20420;-78
2023/06/30 03:06:06;;;;;;;10.90;8.55;;;22.40;99.90;;;;;;4825681;29;20046;-78
2023/06/30 03:08:33;;;;;;;11.30;8.57;;;22.40;99.90;;;;;;4827547;29;20050;-78
2023/06/30 03:11:00;;;;;;;13.40;9.10;;;22.40;99.90;;;;;;4826498;29;20135;-79
2023/06/30 03:13:26;;;;;;;14.35;9.50;;;22.40;99.90;;;;;;4838940;29;20050;-77
2023/06/30 03:15:53;;;;;;;11.65;8.40;;;22.40;99.90;;;;;;4836234;29;20054;-76
2023/06/30 03:18:20;;;;;;;12.43;8.93;;;22.40;99.90;;;;;;4844075;29;20050;-76
2023/06/30 03:20:47;;;;;;;11.25;8.70;;;22.40;99.90;;;;;;4827826;29;20499;-77
2023/06/30 03:23:14;;;;;;;11.73;8.65;;;22.40;99.90;;;;;;4826742;29;20089;-76
2023/06/30 03:25:41;;;;;;;14.50;9.57;;;22.40;99.90;;;;;;4823545;29;20050;-77
2023/06/30 03:28:08;;;;;;;11.77;9.07;;;22.40;99.90;;;;;;4823621;29;20049;-77
2023/06/30 03:30:34;;;;;;;14.05;9.63;;;22.40;99.90;;;;;;4827618;29;20133;-77
2023/06/30 03:33:01;;;;;;;14.35;10.68;;;22.40;99.90;;;;;;4823582;29;20068;-77
2023/06/30 03:35:29;;;;;;;21.77;11.07;;;22.40;99.90;;;;;;4825560;29;20509;-77
2023/06/30 03:37:56;;;;;;;18.33;10.85;;;22.40;99.90;;;;;;4824281;29;20107;-77
2023/06/30 03:40:22;;;;;;;19.50;12.18;;;22.30;99.90;;;;;;4823491;29;20046;-76
2023/06/30 03:42:49;;;;;;;26.13;12.23;;;22.30;99.90;;;;;;4824426;29;20085;-77
2023/06/30 03:45:16;;;;;;;18.35;12.30;;;22.30;99.90;;;;;;4826143;29;20050;-77
2023/06/30 03:47:43;;;;;;;26.33;12.82;;;22.30;99.90;;;;;;4823726;29;20075;-77
2023/06/30 03:50:10;;;;;;;19.98;12.57;;;22.30;99.90;;;;;;4820336;29;20046;-77
2023/06/30 03:52:37;;;;;;;24.75;14.02;;;22.30;99.90;;;;;;4823181;29;20132;-77
2023/06/30 03:55:04;;;;;;;19.52;13.00;;;22.30;99.90;;;;;;4823626;29;20097;-77
2023/06/30 03:57:31;;;;;;;19.33;13.02;;;22.30;99.90;;;;;;4828653;29;20111;-77
2023/06/30 03:59:58;;;;;;;18.50;11.93;;;22.20;99.90;;;;;;4829307;29;20054;-77
2023/06/30 04:02:24;;;;;;;16.85;12.27;;;22.20;99.90;;;;;;4824215;29;20050;-77
2023/06/30 04:04:51;;;;;;;16.48;11.02;;;22.20;99.90;;;;;;4823112;29;20050;-77
2023/06/30 04:07:18;;;;;;;15.35;9.55;;;22.20;99.90;;;;;;4826646;29;20138;-78
2023/06/30 04:09:45;;;;;;;19.83;11.55;;;22.20;99.90;;;;;;4830821;29;20069;-76
2023/06/30 04:12:11;;;;;;;16.92;11.57;;;22.20;99.90;;;;;;4829678;29;20066;-76
2023/06/30 04:14:38;;;;;;;16.80;11.45;;;22.20;99.90;;;;;;4834627;29;20496;-77
2023/06/30 04:17:05;;;;;;;19.13;12.40;;;22.20;99.90;;;;;;4827001;29;20058;-77
2023/06/30 04:19:32;;;;;;;16.02;11.50;;;22.10;99.90;;;;;;4825148;29;20050;-77
2023/06/30 04:21:59;;;;;;;15.88;11.35;;;22.10;99.90;;;;;;4823940;29;20109;-77
2023/06/30 04:24:29;;;;;;;;;;;22.10;99.90;;;;;;4824292;29;20527;-77
2023/06/30 04:26:56;;;;;;;17.58;11.48;;;22.10;99.90;;;;;;4823435;29;19928;-76
2023/06/30 04:29:23;;;;;;;14.02;10.85;;;22.10;99.90;;;;;;4831696;29;20050;-77
2023/06/30 04:31:50;;;;;;;16.20;12.05;;;22.10;99.90;;;;;;4822207;29;20141;-77
2023/06/30 04:34:17;;;;;;;18.98;13.63;;;22.00;99.90;;;;;;4822295;29;20096;-76
2023/06/30 04:36:43;;;;;;;15.38;11.88;;;22.10;99.90;;;;;;4824280;29;20688;-76
2023/06/30 04:39:10;;;;;;;18.90;12.60;;;22.00;99.90;;;;;;4828877;29;20088;-75
2023/06/30 04:41:37;;;;;;;18.80;11.55;;;22.00;99.90;;;;;;4828376;29;20050;-77
2023/06/30 04:44:04;;;;;;;18.38;12.13;;;22.00;99.90;;;;;;4832025;29;20082;-76
2023/06/30 04:46:31;;;;;;;16.73;11.95;;;22.00;99.90;;;;;;4826730;29;20509;-76
2023/06/30 04:49:00;;;;;;;17.63;11.68;;;22.00;99.90;;;;;;4837941;29;20524;-76
2023/06/30 04:51:27;;;;;;;16.30;11.25;;;22.00;99.90;;;;;;4829466;29;20046;-75
2023/06/30 04:53:54;;;;;;;16.10;12.15;;;22.00;99.90;;;;;;4829095;29;20054;-79
2023/06/30 04:56:21;;;;;;;17.27;11.23;;;21.90;99.90;;;;;;4809535;29;20054;-77
2023/06/30 04:58:50;;;;;;;19.55;12.25;;;21.90;99.90;;;;;;4832543;29;20054;-76
2023/06/30 05:01:17;;;;;;;17.02;12.05;;;21.90;99.90;;;;;;4826268;29;20116;-77
2023/06/30 05:03:44;;;;;;;17.50;12.15;;;21.90;99.90;;;;;;4827407;29;20047;-76
2023/06/30 05:06:10;;;;;;;15.77;13.52;;;21.80;99.90;;;;;;4827719;29;20050;-76
2023/06/30 05:08:37;;;;;;;18.48;13.05;;;21.80;99.90;;;;;;4832289;29;20117;-76
2023/06/30 05:11:04;;;;;;;19.77;15.27;;;21.70;99.90;;;;;;4828376;29;20500;-77
2023/06/30 05:13:34;;;;;;;21.15;14.60;;;21.70;99.90;;;;;;4833971;29;20080;-76
2023/06/30 05:16:00;;;;;;;17.45;13.35;;;21.70;99.90;;;;;;4824989;29;20097;-75
2023/06/30 05:18:27;;;;;;;16.33;12.93;;;21.60;99.90;;;;;;4825996;29;20058;-76
2023/06/30 05:20:55;;;;;;;16.73;12.93;;;21.60;99.90;;;;;;4825489;29;20517;-76
2023/06/30 05:23:23;;;;;;;16.40;11.90;;;21.60;99.90;;;;;;4831367;29;20520;-76
2023/06/30 05:25:50;;;;;;;16.83;11.77;;;21.50;99.90;;;;;;4826325;29;20058;-77
2023/06/30 05:28:16;;;;;;;17.85;12.00;;;21.50;99.90;;;;;;4829756;29;20115;-75
2023/06/30 05:30:43;;;;;;;17.20;12.23;;;21.50;99.90;;;;;;4824728;29;20058;-76
2023/06/30 05:33:10;;;;;;;17.90;11.88;;;21.60;99.90;;;;;;4825946;29;20097;-76
2023/06/30 05:35:36;;;;;;;14.75;11.40;;;21.60;99.90;;;;;;4824690;29;20058;-76
2023/06/30 05:38:03;;;;;;;18.58;11.40;;;21.60;99.90;;;;;;4831638;29;20410;-75
2023/06/30 05:40:30;;;;;;;16.50;11.85;;;21.60;99.90;;;;;;4826148;29;20118;-76
2023/06/30 05:42:57;;;;;;;15.75;12.27;;;21.60;99.90;;;;;;4835636;29;20058;-76
2023/06/30 05:45:24;;;;;;;19.10;13.15;;;21.60;99.90;;;;;;4827120;29;20047;-76
2023/06/30 05:47:51;;;;;;;20.05;13.90;;;21.50;99.90;;;;;;4826860;29;20057;-76
2023/06/30 05:50:21;;;;;;;19.33;12.65;;;21.40;99.90;;;;;;4825242;29;20046;-76
2023/06/30 05:52:48;;;;;;;16.90;12.88;;;21.40;99.90;;;;;;4832869;29;20054;-77
2023/06/30 05:55:15;;;;;;;18.20;12.90;;;21.20;99.90;;;;;;4826429;29;20086;-76
2023/06/30 05:57:42;;;;;;;21.17;13.05;;;21.30;99.90;;;;;;4835447;29;20062;-77
2023/06/30 06:00:09;;;;;;;21.50;12.88;;;21.20;99.90;;;;;;4824594;29;20086;-76
2023/06/30 06:02:35;;;;;;;18.33;12.23;;;21.20;99.90;;;;;;4825839;29;20046;-76
2023/06/30 06:05:02;;;;;;;17.98;11.55;;;21.20;99.90;;;;;;4824602;29;20489;-76
2023/06/30 06:07:29;;;;;;;18.98;12.82;;;21.20;99.90;;;;;;4830095;29;20405;-76
2023/06/30 06:09:56;;;;;;;15.23;10.77;;;21.30;99.90;;;;;;4827849;29;20062;-76
2023/06/30 06:12:23;;;;;;;15.85;11.32;;;21.30;99.90;;;;;;4834078;29;20106;-76
2023/06/30 06:14:50;;;;;;;16.27;11.25;;;21.30;99.90;;;;;;4830692;29;20107;-76
2023/06/30 06:17:16;;;;;;;15.55;11.75;;;21.30;99.90;;;;;;4826391;29;20083;-76
2023/06/30 06:19:43;;;;;;;18.80;12.25;;;21.30;99.90;;;;;;4824268;29;20065;-77
2023/06/30 06:22:10;;;;;;;16.88;11.10;;;21.40;99.90;;;;;;4829403;29;20144;-77
2023/06/30 06:24:37;;;;;;;15.70;11.50;;;21.50;99.90;;;;;;4828689;29;20078;-77
2023/06/30 06:27:04;;;;;;;19.08;12.82;;;21.50;99.90;;;;;;4830765;29;20134;-76
2023/06/30 06:29:30;;;;;;;16.92;12.23;;;21.50;99.90;;;;;;4829341;29;20047;-77
2023/06/30 06:31:58;;;;;;;14.77;11.55;;;21.60;99.90;;;;;;4826246;29;20574;-76
2023/06/30 06:34:25;;;;;;;18.20;12.65;;;21.60;99.90;;;;;;4824885;29;20050;-76
2023/06/30 06:36:51;;;;;;;17.50;11.98;;;21.60;99.90;;;;;;4829390;29;20085;-77
2023/06/30 06:39:19;;;;;;;19.08;12.70;;;21.70;99.90;;;;;;4829907;29;20054;-76
2023/06/30 06:41:46;;;;;;;17.20;11.73;;;21.70;99.90;;;;;;4830953;29;20077;-76
2023/06/30 06:44:13;;;;;;;18.00;12.07;;;21.70;99.90;;;;;;4807593;29;20067;-76
2023/06/30 06:46:39;;;;;;;17.77;11.55;;;21.80;99.90;;;;;;4824906;29;20478;-76
2023/06/30 06:49:06;;;;;;;18.80;12.52;;;21.80;99.90;;;;;;4824865;29;20119;-76
2023/06/30 06:51:33;;;;;;;17.67;12.25;;;21.80;99.90;;;;;;4826649;29;20405;-76
2023/06/30 06:54:00;;;;;;;19.70;12.20;;;21.90;99.90;;;;;;4830914;29;20054;-77
2023/06/30 06:56:27;;;;;;;16.77;11.85;;;21.90;99.90;;;;;;4832349;29;20520;-76
2023/06/30 06:58:53;;;;;;;18.95;12.02;;;22.00;99.90;;;;;;4825747;29;20448;-77
2023/06/30 07:01:21;;;;;;;15.95;11.80;;;22.00;99.90;;;;;;4812113;29;20050;-78
2023/06/30 07:03:48;;;;;;;19.17;12.57;;;22.10;99.90;;;;;;4825905;29;20418;-77
2023/06/30 07:06:16;;;;;;;18.27;12.82;;;22.10;99.90;;;;;;4828579;29;20042;-78
2023/06/30 07:08:43;;;;;;;17.65;12.20;;;22.20;99.90;;;;;;4831784;29;20054;-77
2023/06/30 07:11:10;;;;;;;17.60;12.38;;;22.20;99.90;;;;;;4828356;29;20046;-78
2023/06/30 07:13:38;;;;;;;17.27;12.68;;;22.20;99.90;;;;;;4827529;29;20050;-77
2023/06/30 07:16:05;;;;;;;18.25;12.90;;;22.30;99.90;;;;;;4824021;29;20436;-77
2023/06/30 07:18:34;;;;;;;19.90;12.80;;;22.30;99.90;;;;;;4828213;29;20460;-77
2023/06/30 07:21:01;;;;;;;19.10;13.68;;;22.30;99.90;;;;;;4822658;29;20111;-77
2023/06/30 07:23:28;;;;;;;18.45;13.00;;;22.30;99.90;;;;;;4828487;29;20042;-78
2023/06/30 07:25:55;;;;;;;18.65;12.52;;;22.30;99.90;;;;;;4827501;29;20484;-78
2023/06/30 07:28:22;;;;;;;16.80;12.75;;;22.30;99.90;;;;;;4830279;29;20516;-77
2023/06/30 07:30:48;;;;;;;17.70;13.23;;;22.30;99.90;;;;;;4823191;29;20493;-77
2023/06/30 07:33:17;;;;;;;20.38;14.15;;;22.30;99.90;;;;;;4824808;29;20088;-77
2023/06/30 07:35:44;;;;;;;19.38;14.45;;;22.30;99.90;;;;;;4823452;29;20062;-78
2023/06/30 07:38:11;;;;;;;22.33;14.15;;;22.30;99.90;;;;;;4828185;29;20489;-77
2023/06/30 07:40:38;;;;;;;22.35;14.45;;;22.30;99.90;;;;;;4826758;29;20486;-77
2023/06/30 07:43:21;;;;;;;21.42;14.45;;;22.30;99.90;;;;;;4822409;29;20058;-77
2023/06/30 07:45:47;;;;;;;19.73;13.77;;;22.30;99.90;;;;;;4823105;29;20055;-77
2023/06/30 07:48:15;;;;;;;19.42;14.10;;;22.40;99.90;;;;;;4820738;29;20079;-77
2023/06/30 07:50:42;;;;;;;21.20;15.63;;;22.40;99.90;;;;;;4824370;29;20054;-80
2023/06/30 07:53:24;;;;;;;25.27;14.18;;;22.50;99.90;;;;;;4829102;29;20066;-76
2023/06/30 07:55:51;;;;;;;21.17;15.30;;;22.50;99.90;;;;;;4812268;29;20054;-77
2023/06/30 07:58:18;;;;;;;21.67;13.93;;;22.60;99.90;;;;;;4810260;29;20050;-78
2023/06/30 08:00:45;;;;;;;18.48;13.23;;;22.70;99.90;;;;;;4827101;29;20133;-77
2023/06/30 08:03:11;;;;;;;19.33;12.15;;;22.70;99.90;;;;;;4826882;29;20046;-77
2023/06/30 08:05:38;;;;;;;16.83;11.75;;;22.80;99.90;;;;;;4824940;29;20570;-78
2023/06/30 08:08:05;;;;;;;16.88;11.68;;;22.80;99.90;;;;;;4830120;29;20054;-77
2023/06/30 08:10:32;;;;;;;17.85;12.20;;;22.80;99.90;;;;;;4832162;29;20121;-77
2023/06/30 08:13:01;;;;;;;20.48;12.30;;;22.80;99.90;;;;;;4831193;29;20061;-76
2023/06/30 08:15:28;;;;;;;16.58;11.70;;;22.90;99.90;;;;;;4829846;29;20054;-77
2023/06/30 08:17:54;;;;;;;17.77;11.80;;;22.90;99.90;;;;;;4826254;29;20482;-78
2023/06/30 08:20:24;;;;;;;16.53;11.70;;;22.90;99.90;;;;;;4824734;29;20133;-78
2023/06/30 08:22:52;;;;;;;17.25;11.68;;;23.00;99.90;;;;;;4828781;29;20050;-78
2023/06/30 08:25:22;;;;;;;19.08;12.65;;;23.00;99.90;;;;;;4828465;29;20046;-76
2023/06/30 08:27:49;;;;;;;16.73;11.32;;;23.00;99.90;;;;;;4820806;29;20064;-77
2023/06/30 08:30:16;;;;;;;17.38;11.85;;;23.10;99.90;;;;;;4822878;29;20078;-78
2023/06/30 08:32:46;;;;;;;18.05;10.75;;;23.10;99.90;;;;;;4824490;29;20089;-77
2023/06/30 08:35:13;;;;;;;14.43;10.50;;;23.20;99.90;;;;;;4823850;29;20055;-77
2023/06/30 08:37:40;;;;;;;18.88;10.55;;;23.30;99.90;;;;;;4826928;29;20576;-77
2023/06/30 08:40:08;;;;;;;14.52;10.65;;;23.30;99.90;;;;;;4827792;29;20661;-77
2023/06/30 08:42:36;;;;;;;14.45;10.35;;;23.40;99.90;;;;;;4823208;29;20050;-77
2023/06/30 08:45:03;;;;;;;14.30;9.57;;;23.50;99.90;;;;;;4823606;29;20050;-77
2023/06/30 08:47:34;;;;;;;14.52;10.68;;;23.50;99.90;;;;;;4823761;29;20482;-77
2023/06/30 08:50:01;;;;;;;;;;;23.70;99.90;;;;;;4823651;29;20339;-77
2023/06/30 08:52:28;;;;;;;14.68;10.13;;;23.80;99.90;;;;;;4825900;29;20352;-78
2023/06/30 08:54:55;;;;;;;14.27;10.40;;;23.90;99.90;;;;;;4829040;29;20107;-77
2023/06/30 08:57:23;;;;;;;15.30;10.77;;;24.00;99.90;;;;;;4818505;29;20253;-78
2023/06/30 08:59:49;;;;;;;15.73;11.02;;;24.10;99.90;;;;;;4823932;29;20055;-77
2023/06/30 09:02:17;;;;;;;16.17;10.80;;;24.10;99.90;;;;;;4823505;29;20137;-77
2023/06/30 09:04:44;;;;;;;15.95;11.35;;;24.10;99.90;;;;;;4824161;29;20133;-76
2023/06/30 09:07:26;;;;;;;14.05;10.35;;;24.10;99.90;;;;;;4824625;29;20129;-77
2023/06/30 09:09:56;;;;;;;15.20;10.50;;;24.10;99.90;;;;;;4827098;29;20581;-77
2023/06/30 09:12:24;;;;;;;16.15;11.07;;;24.00;99.90;;;;;;4823140;29;20073;-77
2023/06/30 09:14:52;;;;;;;14.40;10.10;;;24.00;99.90;;;;;;4822469;29;20054;-77
2023/06/30 09:17:19;;;;;;;17.35;10.85;;;24.00;99.90;;;;;;4825635;29;20097;-77
2023/06/30 09:19:46;;;;;;;14.30;10.25;;;24.00;99.90;;;;;;4823922;29;20480;-77
2023/06/30 09:22:14;;;;;;;14.00;10.02;;;23.90;99.90;;;;;;4827149;29;20085;-78
2023/06/30 09:25:01;;;;;;;15.15;10.88;;;24.00;99.90;;;;;;4831091;29;20055;-77
2023/06/30 09:27:27;;;;;;;16.35;9.63;;;24.00;99.90;;;;;;4825516;29;20070;-77
2023/06/30 09:29:55;;;;;;;16.42;11.52;;;24.10;99.90;;;;;;4824022;29;20053;-77
2023/06/30 09:32:29;;;;;;;13.65;10.75;;;24.10;99.90;;;;;;4809866;29;20061;-77
2023/06/30 09:35:00;;;;;;;15.15;10.38;;;24.20;99.90;;;;;;4826140;29;20070;-77
2023/06/30 09:37:26;;;;;;;;;;;24.20;99.90;;;;;;4828748;29;20413;-77
2023/06/30 09:39:53;;;;;;;14.55;10.30;;;24.30;99.90;;;;;;4816219;29;20399;-77
2023/06/30 09:42:20;;;;;;;17.02;12.20;;;24.30;99.90;;;;;;4824228;29;20078;-77
2023/06/30 09:44:51;;;;;;;14.90;10.98;;;24.40;99.90;;;;;;4829354;29;20082;-76
2023/06/30 09:47:18;;;;;;;14.65;10.35;;;24.40;99.90;;;;;;4825230;29;20422;-77
2023/06/30 09:49:45;;;;;;;15.13;10.43;;;24.50;99.90;;;;;;4830257;29;20053;-77
2023/06/30 09:52:25;;;;;;;15.85;9.93;;;24.50;99.90;;;;;;4827641;29;20078;-77
2023/06/30 09:54:52;;;;;;;;;;;24.50;99.90;;;;;;4829534;29;20062;-77
2023/06/30 09:57:18;;;;;;;13.07;9.70;;;24.50;99.90;;;;;;4825117;29;19925;-77
2023/06/30 09:59:47;;;;;;;13.60;10.25;;;24.50;99.90;;;;;;4825881;29;20058;-78
2023/06/30 10:02:14;;;;;;;15.07;10.60;;;24.50;99.90;;;;;;4825796;29;20492;-76
2023/06/30 10:04:43;;;;;;;16.45;10.57;;;24.60;99.90;;;;;;4828176;29;20054;-77
2023/06/30 10:07:13;;;;;;;15.50;10.57;;;24.70;99.90;;;;;;4827989;29;20046;-77
2023/06/30 10:09:43;;;;;;;14.85;10.90;;;24.80;99.90;;;;;;4830466;29;20046;-77
2023/06/30 10:12:10;;;;;;;14.52;10.43;;;24.90;99.90;;;;;;4825221;29;20474;-78
2023/06/30 10:14:38;;;;;;;15.27;10.43;;;25.10;99.90;;;;;;4822932;29;20050;-77
2023/06/30 10:17:07;;;;;;;13.60;10.15;;;25.20;99.90;;;;;;4825460;29;20402;-78
2023/06/30 10:19:38;;;;;;;14.63;9.80;;;25.40;99.90;;;;;;4828117;29;20057;-77
2023/06/30 10:22:05;;;;;;;12.75;9.65;;;25.50;99.90;;;;;;4810383;29;20734;-77
2023/06/30 10:24:41;;;;;;;12.95;10.07;;;25.70;99.90;;;;;;4831691;29;20111;-79
2023/06/30 10:27:12;;;;;;;15.48;10.85;;;25.80;99.90;;;;;;4824775;29;20054;-77
2023/06/30 10:29:39;;;;;;;15.18;11.23;;;25.90;99.90;;;;;;4821033;29;20074;-77
2023/06/30 10:32:06;;;;;;;12.95;10.02;;;25.90;99.90;;;;;;4824899;29;20107;-77
2023/06/30 10:34:33;;;;;;;14.30;10.70;;;26.00;99.90;;;;;;4827158;29;20054;-77
2023/06/30 10:37:00;;;;;;;14.93;11.23;;;26.10;99.90;;;;;;4825938;29;20141;-77
2023/06/30 10:39:27;;;;;;;14.85;10.68;;;26.10;99.90;;;;;;4832041;29;20478;-78
2023/06/30 10:41:59;;;;;;;14.45;11.02;;;26.10;99.90;;;;;;4822687;29;20050;-78
2023/06/30 10:44:43;;;;;;;15.60;11.25;;;26.10;99.90;;;;;;4824497;29;20478;-77
2023/06/30 10:47:10;;;;;;;13.32;10.23;;;26.10;99.90;;;;;;4825452;29;20790;-78
2023/06/30 10:49:42;;;;;;;14.20;10.88;;;26.20;99.90;;;;;;4825008;29;20077;-77
2023/06/30 10:52:23;;;;;;;15.25;11.55;;;26.20;99.90;;;;;;4826586;29;20070;-77
2023/06/30 10:54:50;;;;;;;14.52;11.10;;;26.30;99.90;;;;;;4830413;29;20202;-78
2023/06/30 10:57:19;;;;;;;13.57;10.57;;;26.30;99.90;;;;;;4824485;29;20138;-78
2023/06/30 10:59:47;;;;;;;13.23;10.23;;;26.30;99.90;;;;;;4825248;29;20058;-77
2023/06/30 11:02:17;;;;;;;15.98;11.07;;;26.40;99.90;;;;;;4824799;29;20393;-77
2023/06/30 11:04:47;;;;;;;13.27;10.27;;;26.40;99.90;;;;;;4828178;29;20054;-77
2023/06/30 11:07:24;;;;;;;16.75;11.45;;;26.40;99.90;;;;;;4825830;29;20050;-77
2023/06/30 11:09:55;;;;;;;15.85;12.30;;;26.50;99.90;;;;;;4823431;29;20084;-77
2023/06/30 11:12:26;;;;;;;17.77;12.60;;;26.60;99.90;;;;;;4828221;29;20089;-77
2023/06/30 11:14:58;;;;;;;14.75;11.55;;;26.70;99.90;;;;;;4824206;29;20111;-77
2023/06/30 11:17:27;;;;;;;16.77;12.25;;;26.70;99.90;;;;;;4831268;29;20106;-77
2023/06/30 11:20:11;;;;;;;14.98;11.85;;;26.70;99.90;;;;;;4824369;29;20062;-77
2023/06/30 11:22:39;;;;;;;15.80;11.82;;;26.80;99.90;;;;;;4828503;29;20076;-76
2023/06/30 11:25:10;;;;;;;19.45;13.25;;;26.80;99.90;;;;;;4807189;29;20076;-76
2023/06/30 11:27:38;;;;;;;17.35;12.25;;;26.90;99.90;;;;;;4824826;29;20440;-77
2023/06/30 11:30:07;;;;;;;15.77;12.40;;;26.90;99.90;;;;;;4824145;29;20114;-76
2023/06/30 11:32:38;;;;;;;16.67;12.27;;;27.00;99.90;;;;;;4826533;29;20054;-77
2023/06/30 11:35:09;;;;;;;15.77;12.00;;;27.10;99.90;;;;;;4825993;29;20070;-78
2023/06/30 11:37:36;;;;;;;17.98;11.55;;;27.10;99.90;;;;;;4829279;29;20076;-78
2023/06/30 11:40:05;;;;;;;14.88;11.77;;;27.20;99.90;;;;;;4827611;29;20066;-77
2023/06/30 11:42:38;;;;;;;16.02;12.30;;;27.30;99.90;;;;;;4827272;29;20427;-78
2023/06/30 11:45:06;;;;;;;14.98;11.68;;;27.30;99.90;;;;;;4823735;29;20107;-77
2023/06/30 11:47:35;;;;;;;17.00;12.65;;;27.30;99.90;;;;;;4831311;29;20046;-77
2023/06/30 11:50:07;;;;;;;;;;;27.40;99.90;;;;;;4815180;29;20404;-76
2023/06/30 11:52:34;;;;;;;14.95;11.23;;;27.40;99.90;;;;;;4832758;29;19979;-76
2023/06/30 11:55:14;;;;;;;12.85;10.55;;;27.40;99.90;;;;;;4824140;29;20120;-77
2023/06/30 11:57:43;;;;;;;12.00;10.05;;;27.40;99.90;;;;;;4823287;29;20428;-76
2023/06/30 12:00:12;;;;;;;13.15;10.27;;;27.40;99.90;;;;;;4823169;29;20093;-76
2023/06/30 12:02:45;;;;;;;14.45;11.32;;;27.30;99.90;;;;;;4808225;29;20716;-76
2023/06/30 12:05:17;;;;;;;12.85;10.20;;;27.30;99.90;;;;;;4826032;29;20415;-77
2023/06/30 12:07:46;;;;;;;18.73;9.80;;;27.10;99.90;;;;;;4828809;29;20089;-76
2023/06/30 12:10:14;;;;;;;11.90;9.47;;;26.90;99.90;;;;;;4821950;29;20589;-77
2023/06/30 12:12:41;;;;;;;13.63;9.82;;;26.70;99.90;;;;;;4823785;29;20054;-75
2023/06/30 12:15:11;;;;;;;12.98;10.27;;;26.30;99.90;;;;;;4823245;29;20104;-77
2023/06/30 12:17:39;;;;;;;;;;;26.10;99.90;;;;;;4829153;29;20046;-78
2023/06/30 12:20:07;;;;;;;18.55;12.23;;;25.50;99.90;;;;;;4828343;29;19925;-78
2023/06/30 12:22:36;;;;;;;21.38;13.60;;;24.80;99.90;;;;;;4823863;29;20074;-78
2023/06/30 12:25:07;;;;;;;22.20;14.27;;;24.40;99.90;;;;;;4824183;29;20142;-76
2023/06/30 12:27:35;;;;;;;18.52;12.55;;;24.10;99.90;;;;;;4826616;29;20050;-77
2023/06/30 12:30:02;;;;;;;21.88;13.48;;;23.90;99.90;;;;;;4823272;29;20054;-77
2023/06/30 12:32:30;;;;;;;21.42;13.15;;;23.90;99.90;;;;;;4825394;29;20054;-77
2023/06/30 12:35:00;;;;;;;19.45;13.60;;;23.90;99.90;;;;;;4827666;29;20117;-77
2023/06/30 12:37:30;;;;;;;19.13;12.88;;;23.80;99.90;;;;;;4823159;29;20056;-76